Time;durP1;ratioP1;P1;durP2;ratioP2;P2;SDS_P1;SDS_P2;PMS_P1;PMS_P2;Temp;Humidity;BMP_temperature;BMP_pressure;BME280_temperature;BME280_humidity;BME280_pressure;Samples;Min_cycle;Max_cycle;Signal;HPM_P1;HPM_P2
2022/11/06 00:00:16;;;;;;;21.73;6.95;;;;;;;;;;1763424;81;21000;-83
2022/11/06 00:02:42;;;;;;;20.60;8.13;;;;;;;;;;1763111;81;21283;-83
2022/11/06 00:07:51;;;;;;;19.17;7.30;;;;;;;;;;1762857;81;21500;-83
2022/11/06 00:10:17;;;;;;;23.12;7.90;;;;;;;;;;1762934;81;20811;-84
2022/11/06 00:12:44;;;;;;;20.35;7.80;;;;;;;;;;1763124;81;21106;-84
2022/11/06 00:15:10;;;;;;;20.20;8.65;;;;;;;;;;1763022;81;21237;-84
2022/11/06 00:17:36;;;;;;;21.45;8.53;;;;;;;;;;1762976;81;21054;-84
2022/11/06 00:20:03;;;;;;;19.12;8.10;;;;;;;;;;1762992;81;20868;-84
2022/11/06 00:22:33;;;;;;;23.47;9.15;;;;;;;;;;1754358;81;21001;-84
2022/11/06 00:25:00;;;;;;;19.62;7.95;;;;;;;;;;1754959;81;21091;-84
2022/11/06 00:27:26;;;;;;;20.32;8.10;;;;;;;;;;1755001;81;21556;-84
2022/11/06 00:29:51;;;;;;;21.95;7.83;;;;;;;;;;1754848;81;20846;-84
2022/11/06 00:32:17;;;;;;;20.45;8.08;;;;;;;;;;1754945;81;21662;-83
2022/11/06 00:34:43;;;;;;;22.22;7.97;;;;;;;;;;1754857;81;20940;-84
2022/11/06 00:37:09;;;;;;;22.30;8.75;;;;;;;;;;1754691;81;21433;-84
2022/11/06 00:39:34;;;;;;;19.75;7.60;;;;;;;;;;1755110;81;21080;-84
2022/11/06 00:42:00;;;;;;;23.25;8.58;;;;;;;;;;1755002;81;21015;-84
2022/11/06 00:44:26;;;;;;;24.10;9.65;;;;;;;;;;1755246;81;20869;-84
2022/11/06 00:46:51;;;;;;;19.50;8.43;;;;;;;;;;1754984;81;20841;-84
2022/11/06 00:49:17;;;;;;;19.62;8.03;;;;;;;;;;1755217;81;21374;-83
2022/11/06 00:51:43;;;;;;;19.37;8.48;;;;;;;;;;1754703;81;21127;-84
2022/11/06 00:54:10;;;;;;;20.25;8.30;;;;;;;;;;1733510;81;21035;-84
2022/11/06 00:56:36;;;;;;;22.42;8.03;;;;;;;;;;1754916;81;20996;-84
2022/11/06 00:59:04;;;;;;;19.87;8.70;;;;;;;;;;1754884;81;20826;-84
2022/11/06 01:01:32;;;;;;;19.02;8.35;;;;;;;;;;1754928;81;21036;-84
2022/11/06 01:04:00;;;;;;;22.15;8.30;;;;;;;;;;1747338;81;21137;-84
2022/11/06 01:06:28;;;;;;;25.23;8.78;;;;;;;;;;1755072;81;21028;-84
2022/11/06 01:08:54;;;;;;;23.90;8.88;;;;;;;;;;1754831;81;21056;-84
2022/11/06 01:11:26;;;;;;;20.17;8.63;;;;;;;;;;1755171;81;21016;-84
2022/11/06 01:13:54;;;;;;;23.73;9.35;;;;;;;;;;1642623;87;21092;-84
2022/11/06 01:16:20;;;;;;;20.97;8.45;;;;;;;;;;1642858;87;21117;-84
2022/11/06 01:18:46;;;;;;;24.35;9.25;;;;;;;;;;1642211;87;21011;-84
2022/11/06 01:21:17;;;;;;;24.87;9.75;;;;;;;;;;1642455;86;20931;-84
2022/11/06 01:23:44;;;;;;;21.45;9.70;;;;;;;;;;1642744;87;21109;-84
2022/11/06 01:26:11;;;;;;;24.45;10.08;;;;;;;;;;1643051;87;21492;-84
2022/11/06 01:28:38;;;;;;;23.83;9.80;;;;;;;;;;1642814;87;21879;-84
2022/11/06 01:31:09;;;;;;;23.60;10.08;;;;;;;;;;1642944;87;21050;-84
2022/11/06 01:33:34;;;;;;;25.17;9.53;;;;;;;;;;1642969;86;21213;-84
2022/11/06 01:36:00;;;;;;;24.82;9.78;;;;;;;;;;1643138;87;20977;-83
2022/11/06 01:38:26;;;;;;;24.63;10.45;;;;;;;;;;1642905;86;20895;-83
2022/11/06 01:40:52;;;;;;;25.12;10.23;;;;;;;;;;1643081;87;22150;-83
2022/11/06 01:43:21;;;;;;;25.17;10.20;;;;;;;;;;1620956;87;21081;-84
2022/11/06 01:45:54;;;;;;;23.87;9.78;;;;;;;;;;1642858;86;21174;-84
2022/11/06 01:48:22;;;;;;;25.02;9.65;;;;;;;;;;1643111;86;21683;-83
2022/11/06 01:50:50;;;;;;;26.40;10.30;;;;;;;;;;1643452;86;21026;-84
2022/11/06 01:53:17;;;;;;;25.43;10.38;;;;;;;;;;1643004;87;21900;-81
2022/11/06 01:55:45;;;;;;;23.22;9.40;;;;;;;;;;1643208;87;21030;-84
2022/11/06 01:58:14;;;;;;;24.40;10.13;;;;;;;;;;1643021;87;21070;-90
2022/11/06 02:00:40;;;;;;;25.77;10.65;;;;;;;;;;1642926;87;21085;-84
2022/11/06 02:03:06;;;;;;;26.55;10.68;;;;;;;;;;1643411;87;21542;-84
2022/11/06 02:05:31;;;;;;;27.48;10.88;;;;;;;;;;1620893;87;20991;-83
2022/11/06 02:07:59;;;;;;;24.65;10.20;;;;;;;;;;1643081;87;21694;-84
2022/11/06 02:10:25;;;;;;;23.30;9.83;;;;;;;;;;1686434;81;21493;-84
2022/11/06 02:13:23;;;;;;;24.77;10.13;;;;;;;;;;1755368;81;20886;-84
2022/11/06 02:16:10;;;;;;;27.22;11.03;;;;;;;;;;1755367;81;20992;-84
2022/11/06 02:18:55;;;;;;;25.27;10.25;;;;;;;;;;1752105;81;21072;-81
2022/11/06 02:21:44;;;;;;;27.62;10.88;;;;;;;;;;1755895;81;21521;-83
2022/11/06 02:24:42;;;;;;;26.68;10.38;;;;;;;;;;1761037;81;20995;-84
2022/11/06 02:27:11;;;;;;;27.93;10.15;;;;;;;;;;1765885;81;21051;-83
2022/11/06 02:29:50;;;;;;;26.15;11.22;;;;;;;;;;1765981;81;21000;-83
2022/11/06 02:32:22;;;;;;;26.37;10.38;;;;;;;;;;1766250;81;21762;-83
2022/11/06 02:34:49;;;;;;;26.17;10.43;;;;;;;;;;1766212;81;20984;-83
2022/11/06 02:37:18;;;;;;;28.35;11.50;;;;;;;;;;1735900;81;21078;-83
2022/11/06 02:39:45;;;;;;;29.02;11.65;;;;;;;;;;1735202;82;21139;-83
2022/11/06 02:42:14;;;;;;;30.55;11.10;;;;;;;;;;1735163;82;21099;-83
2022/11/06 02:44:40;;;;;;;28.87;10.72;;;;;;;;;;1735107;82;21882;-83
2022/11/06 02:47:11;;;;;;;25.15;10.93;;;;;;;;;;1735033;82;21005;-83
2022/11/06 02:49:40;;;;;;;34.73;12.05;;;;;;;;;;1735125;82;21041;-82
2022/11/06 02:52:24;;;;;;;30.25;10.20;;;;;;;;;;1735149;82;20978;-83
2022/11/06 02:54:53;;;;;;;28.57;10.95;;;;;;;;;;1734922;82;21048;-84
2022/11/06 02:57:20;;;;;;;26.55;11.15;;;;;;;;;;1735093;82;22039;-84
2022/11/06 02:59:49;;;;;;;28.45;11.08;;;;;;;;;;1735022;82;21037;-84
2022/11/06 03:02:19;;;;;;;30.17;10.70;;;;;;;;;;1717707;81;21058;-83
2022/11/06 03:05:05;;;;;;;27.05;11.38;;;;;;;;;;1693220;82;21050;-83
2022/11/06 03:07:51;;;;;;;29.15;11.45;;;;;;;;;;1693059;82;21546;-83
2022/11/06 03:10:16;;;;;;;27.25;10.95;;;;;;;;;;1693276;82;21221;-84
2022/11/06 03:12:54;;;;;;;28.27;10.93;;;;;;;;;;1693328;82;20887;-83
2022/11/06 03:15:23;;;;;;;27.90;11.12;;;;;;;;;;1693176;82;21003;-83
2022/11/06 03:18:02;;;;;;;32.42;11.75;;;;;;;;;;1693278;82;21035;-85
2022/11/06 03:20:43;;;;;;;28.12;11.45;;;;;;;;;;1693223;82;21098;-84
2022/11/06 03:25:58;;;;;;;27.17;10.70;;;;;;;;;;1631597;87;21087;-84
2022/11/06 03:28:27;;;;;;;28.83;10.78;;;;;;;;;;1577273;89;21092;-85
2022/11/06 03:30:56;;;;;;;29.12;10.43;;;;;;;;;;1565343;90;21057;-85
2022/11/06 03:33:31;;;;;;;26.90;10.60;;;;;;;;;;1561947;90;21628;-85
2022/11/06 03:36:07;;;;;;;27.13;10.80;;;;;;;;;;1562048;90;21149;-85
2022/11/06 03:38:36;;;;;;;31.30;11.48;;;;;;;;;;1538109;91;21141;-84
2022/11/06 03:41:20;;;;;;;31.87;11.25;;;;;;;;;;1538231;91;21122;-85
2022/11/06 03:43:48;;;;;;;30.60;11.55;;;;;;;;;;1482523;95;21124;-85
2022/11/06 03:46:18;;;;;;;29.18;10.80;;;;;;;;;;1482430;95;21558;-84
2022/11/06 03:48:50;;;;;;;30.00;11.30;;;;;;;;;;1481994;95;21181;-85
2022/11/06 03:51:19;;;;;;;27.30;10.48;;;;;;;;;;1437626;98;21139;-84
2022/11/06 03:53:51;;;;;;;30.32;11.63;;;;;;;;;;1435566;98;21266;-85
2022/11/06 03:56:23;;;;;;;31.80;11.35;;;;;;;;;;1407362;100;21161;-85
2022/11/06 03:58:49;;;;;;;30.10;11.55;;;;;;;;;;1406065;101;21149;-85
2022/11/06 04:01:18;;;;;;;25.32;9.85;;;;;;;;;;1407799;100;22030;-85
2022/11/06 04:03:50;;;;;;;29.12;10.78;;;;;;;;;;1407786;101;21175;-85
2022/11/06 04:06:25;;;;;;;32.30;12.25;;;;;;;;;;1420956;98;21090;-84
2022/11/06 04:14:25;;;;;;;31.73;11.80;;;;;;;;;;1427373;99;21708;-84
2022/11/06 04:16:53;;;;;;;29.20;11.65;;;;;;;;;;1427687;100;21075;-85
2022/11/06 04:19:21;;;;;;;28.15;11.28;;;;;;;;;;1484319;94;21690;-85
2022/11/06 04:22:07;;;;;;;30.00;11.12;;;;;;;;;;1490960;93;21184;-85
2022/11/06 04:27:59;;;;;;;29.10;11.00;;;;;;;;;;1548311;88;21189;-85
2022/11/06 04:30:29;;;;;;;32.67;12.15;;;;;;;;;;1622778;86;21046;-84
2022/11/06 04:33:10;;;;;;;34.25;12.15;;;;;;;;;;1622705;86;21057;-85
2022/11/06 04:35:52;;;;;;;29.87;11.33;;;;;;;;;;1689486;82;21060;-86
2022/11/06 04:38:27;;;;;;;34.92;12.98;;;;;;;;;;1733451;82;21439;-85
2022/11/06 04:41:01;;;;;;;31.62;11.97;;;;;;;;;;1732398;82;21071;-84
2022/11/06 04:43:36;;;;;;;32.08;12.88;;;;;;;;;;1730910;82;21107;-84
2022/11/06 04:46:07;;;;;;;29.18;11.05;;;;;;;;;;1621650;87;21104;-86
2022/11/06 04:48:33;;;;;;;28.62;11.00;;;;;;;;;;1621311;88;21118;-86
2022/11/06 04:51:01;;;;;;;30.00;11.48;;;;;;;;;;1621561;88;21131;-84
2022/11/06 04:53:28;;;;;;;28.92;11.20;;;;;;;;;;1634198;87;21095;-85
2022/11/06 04:55:55;;;;;;;30.52;11.55;;;;;;;;;;1643004;87;21103;-85
2022/11/06 04:58:21;;;;;;;29.85;10.93;;;;;;;;;;1643236;87;21115;-84
2022/11/06 05:00:49;;;;;;;29.02;11.25;;;;;;;;;;1621170;87;21112;-85
2022/11/06 05:03:15;;;;;;;30.80;11.57;;;;;;;;;;1643166;87;21081;-84
2022/11/06 05:05:41;;;;;;;31.75;11.25;;;;;;;;;;1643044;87;21137;-84
2022/11/06 05:08:15;;;;;;;30.65;12.23;;;;;;;;;;1643130;87;21010;-84
2022/11/06 05:10:42;;;;;;;29.30;10.90;;;;;;;;;;1641165;87;21485;-85
2022/11/06 05:13:07;;;;;;;25.50;10.30;;;;;;;;;;1643485;87;21106;-84
2022/11/06 05:15:33;;;;;;;29.85;10.58;;;;;;;;;;1643302;87;21043;-84
2022/11/06 05:17:59;;;;;;;29.92;10.80;;;;;;;;;;1643353;87;21139;-85
2022/11/06 05:20:25;;;;;;;29.10;11.28;;;;;;;;;;1643146;87;20937;-84
2022/11/06 05:22:57;;;;;;;29.57;11.15;;;;;;;;;;1675051;80;20818;-84
2022/11/06 05:25:24;;;;;;;31.52;11.45;;;;;;;;;;1765793;81;21023;-84
2022/11/06 05:27:50;;;;;;;28.62;10.95;;;;;;;;;;1742110;81;21478;-85
2022/11/06 05:30:16;;;;;;;25.65;10.48;;;;;;;;;;1765703;81;21113;-84
2022/11/06 05:32:42;;;;;;;30.68;11.38;;;;;;;;;;1765749;81;21461;-84
2022/11/06 05:35:08;;;;;;;28.50;10.10;;;;;;;;;;1765721;81;21029;-85
2022/11/06 05:37:41;;;;;;;24.35;9.68;;;;;;;;;;1765987;81;20877;-85
2022/11/06 05:40:09;;;;;;;35.17;13.15;;;;;;;;;;1765217;81;21464;-85
2022/11/06 05:42:42;;;;;;;35.95;12.58;;;;;;;;;;1764317;81;21935;-86
2022/11/06 05:45:10;;;;;;;22.50;9.63;;;;;;;;;;1734354;82;21083;-86
2022/11/06 05:47:40;;;;;;;28.70;10.85;;;;;;;;;;1734853;82;21016;-86
2022/11/06 05:50:07;;;;;;;31.27;11.00;;;;;;;;;;1734774;82;21056;-85
2022/11/06 05:52:34;;;;;;;27.50;9.50;;;;;;;;;;1735003;82;21016;-85
2022/11/06 05:55:00;;;;;;;25.68;10.05;;;;;;;;;;1734784;82;21059;-85
2022/11/06 05:57:26;;;;;;;25.20;9.65;;;;;;;;;;1734457;82;21033;-86
2022/11/06 05:59:52;;;;;;;29.67;10.23;;;;;;;;;;1734898;82;20819;-85
2022/11/06 06:02:18;;;;;;;27.60;10.55;;;;;;;;;;1734694;82;20956;-86
2022/11/06 06:04:43;;;;;;;24.07;10.30;;;;;;;;;;1734902;82;20890;-85
2022/11/06 06:07:09;;;;;;;27.95;9.95;;;;;;;;;;1734774;82;21129;-86
2022/11/06 06:09:35;;;;;;;26.70;10.35;;;;;;;;;;1731006;82;20957;-86
2022/11/06 06:12:01;;;;;;;29.63;10.48;;;;;;;;;;1704593;83;20940;-85
2022/11/06 06:14:27;;;;;;;28.52;11.35;;;;;;;;;;1704552;83;20896;-83
2022/11/06 06:16:53;;;;;;;36.55;11.78;;;;;;;;;;1704578;83;21078;-84
2022/11/06 06:19:21;;;;;;;42.90;14.45;;;;;;;;;;1704363;83;21024;-83
2022/11/06 06:21:56;;;;;;;36.85;12.47;;;;;;;;;;1704785;83;21051;-84
2022/11/06 06:24:30;;;;;;;29.82;11.10;;;;;;;;;;1708113;82;21049;-82
2022/11/06 06:26:56;;;;;;;28.55;10.53;;;;;;;;;;1719981;82;21058;-84
2022/11/06 06:29:22;;;;;;;29.27;10.08;;;;;;;;;;1720190;82;20986;-84
2022/11/06 06:31:48;;;;;;;27.80;10.63;;;;;;;;;;1720425;82;21618;-81
2022/11/06 06:34:14;;;;;;;26.95;9.98;;;;;;;;;;1719672;82;21458;-83
2022/11/06 06:36:40;;;;;;;26.50;10.13;;;;;;;;;;1720801;83;21479;-87
2022/11/06 06:39:06;;;;;;;28.50;10.40;;;;;;;;;;1720748;82;20824;-85
2022/11/06 06:41:32;;;;;;;29.85;10.13;;;;;;;;;;1683836;85;21736;-84
2022/11/06 06:43:58;;;;;;;28.60;10.53;;;;;;;;;;1720554;83;21110;-84
2022/11/06 06:46:23;;;;;;;27.73;9.65;;;;;;;;;;1720901;83;20962;-85
2022/11/06 06:48:49;;;;;;;27.82;9.78;;;;;;;;;;1721254;83;20876;-85
2022/11/06 06:51:15;;;;;;;19.65;7.78;;;;;;;;;;1721038;83;20934;-85
2022/11/06 06:53:40;;;;;;;25.40;9.60;;;;;;;;;;1720816;83;20958;-84
2022/11/06 06:56:06;;;;;;;23.75;9.33;;;;;;;;;;1720926;83;20938;-83
2022/11/06 06:58:33;;;;;;;26.27;9.40;;;;;;;;;;1720647;82;20963;-84
2022/11/06 07:01:01;;;;;;;23.38;9.15;;;;;;;;;;1721056;83;21098;-84
2022/11/06 07:03:27;;;;;;;22.95;8.45;;;;;;;;;;1720700;83;21059;-85
2022/11/06 07:05:52;;;;;;;26.10;9.60;;;;;;;;;;1721062;83;21049;-84
2022/11/06 07:08:18;;;;;;;24.98;9.28;;;;;;;;;;1720944;83;21134;-86
2022/11/06 07:10:44;;;;;;;26.65;10.70;;;;;;;;;;1720846;83;20966;-85
2022/11/06 07:13:10;;;;;;;24.95;10.63;;;;;;;;;;1720900;83;20954;-85
2022/11/06 07:15:36;;;;;;;26.12;10.28;;;;;;;;;;1683903;85;20878;-85
2022/11/06 07:18:02;;;;;;;27.10;10.40;;;;;;;;;;1721002;83;20970;-85
2022/11/06 07:20:29;;;;;;;26.40;9.33;;;;;;;;;;1683697;85;21082;-86
2022/11/06 07:22:55;;;;;;;25.25;8.98;;;;;;;;;;1720903;83;21519;-85
2022/11/06 07:25:20;;;;;;;28.55;10.65;;;;;;;;;;1710291;82;20924;-84
2022/11/06 07:27:46;;;;;;;22.50;8.93;;;;;;;;;;1700699;83;20995;-83
2022/11/06 07:30:12;;;;;;;24.57;9.20;;;;;;;;;;1700770;84;21152;-85
2022/11/06 07:32:38;;;;;;;19.32;8.95;;;;;;;;;;1700924;84;21607;-83
2022/11/06 07:35:04;;;;;;;20.23;7.95;;;;;;;;;;1700717;84;20896;-84
2022/11/06 07:37:30;;;;;;;22.42;8.78;;;;;;;;;;1700874;84;21483;-84
2022/11/06 07:39:56;;;;;;;21.27;8.45;;;;;;;;;;1680611;83;20833;-83
2022/11/06 07:42:21;;;;;;;19.05;8.00;;;;;;;;;;1700793;84;21436;-85
2022/11/06 07:44:47;;;;;;;19.30;7.60;;;;;;;;;;1700870;84;21011;-84
2022/11/06 07:47:13;;;;;;;20.35;7.83;;;;;;;;;;1700819;84;20884;-90
2022/11/06 07:49:38;;;;;;;21.95;9.00;;;;;;;;;;1700877;84;20884;-85
2022/11/06 07:52:05;;;;;;;23.42;8.65;;;;;;;;;;1700745;84;20960;-84
2022/11/06 07:54:30;;;;;;;20.43;7.95;;;;;;;;;;1700764;83;21123;-83
2022/11/06 07:56:56;;;;;;;22.30;8.10;;;;;;;;;;1700664;84;21590;-85
2022/11/06 07:59:22;;;;;;;23.38;8.35;;;;;;;;;;1700841;84;20979;-84
2022/11/06 08:01:48;;;;;;;17.70;7.58;;;;;;;;;;1700853;84;20967;-84
2022/11/06 08:04:14;;;;;;;18.15;8.13;;;;;;;;;;1700994;84;20960;-90
2022/11/06 08:06:39;;;;;;;19.05;8.15;;;;;;;;;;1701033;84;20935;-85
2022/11/06 08:09:07;;;;;;;18.85;8.08;;;;;;;;;;1701044;84;21070;-87
2022/11/06 08:11:33;;;;;;;21.37;7.33;;;;;;;;;;1685818;85;21124;-84
2022/11/06 08:14:06;;;;;;;20.08;8.20;;;;;;;;;;1685972;85;20875;-85
2022/11/06 08:16:32;;;;;;;18.75;7.90;;;;;;;;;;1685444;85;21118;-85
2022/11/06 08:18:58;;;;;;;20.90;8.78;;;;;;;;;;1685353;85;21029;-84
2022/11/06 08:21:23;;;;;;;21.33;8.38;;;;;;;;;;1686089;85;21154;-85
2022/11/06 08:23:49;;;;;;;18.40;7.60;;;;;;;;;;1685609;85;21713;-84
2022/11/06 08:26:15;;;;;;;17.52;7.35;;;;;;;;;;1689418;84;21648;-84
2022/11/06 08:28:41;;;;;;;19.62;7.58;;;;;;;;;;1690252;84;21077;-85
2022/11/06 08:31:08;;;;;;;18.77;8.08;;;;;;;;;;1657061;85;20883;-85
2022/11/06 08:33:35;;;;;;;19.17;7.92;;;;;;;;;;1690392;84;21150;-85
2022/11/06 08:36:03;;;;;;;17.30;7.25;;;;;;;;;;1690156;84;21065;-84
2022/11/06 08:38:28;;;;;;;15.93;7.10;;;;;;;;;;1666715;85;21113;-84
2022/11/06 08:40:54;;;;;;;16.45;7.12;;;;;;;;;;1666758;84;20870;-84
2022/11/06 08:43:23;;;;;;;21.20;7.90;;;;;;;;;;1667211;84;20918;-84
2022/11/06 08:45:48;;;;;;;21.55;8.50;;;;;;;;;;1666237;85;21046;-85
2022/11/06 08:48:13;;;;;;;17.32;7.10;;;;;;;;;;1667240;86;20974;-83
2022/11/06 08:50:40;;;;;;;16.25;6.90;;;;;;;;;;1667432;86;21379;-86
2022/11/06 08:53:06;;;;;;;23.40;7.95;;;;;;;;;;1666827;86;21048;-84
2022/11/06 08:55:34;;;;;;;15.00;6.58;;;;;;;;;;1667089;86;21033;-85
2022/11/06 08:58:00;;;;;;;17.42;7.20;;;;;;;;;;1667143;86;21208;-83
2022/11/06 09:00:26;;;;;;;19.90;8.33;;;;;;;;;;1667313;86;21068;-85
2022/11/06 09:03:05;;;;;;;18.48;7.78;;;;;;;;;;1667381;86;21124;-86
2022/11/06 09:05:31;;;;;;;16.97;7.25;;;;;;;;;;1652508;86;20980;-85
2022/11/06 09:07:57;;;;;;;17.25;6.60;;;;;;;;;;1660897;85;20927;-85
2022/11/06 09:10:23;;;;;;;16.95;7.30;;;;;;;;;;1633448;87;21074;-85
2022/11/06 09:12:49;;;;;;;20.40;8.25;;;;;;;;;;1633271;87;21409;-86
2022/11/06 09:15:15;;;;;;;17.32;7.72;;;;;;;;;;1633766;87;20923;-85
2022/11/06 09:17:42;;;;;;;19.17;7.95;;;;;;;;;;1633318;87;20967;-85
2022/11/06 09:20:09;;;;;;;17.35;7.33;;;;;;;;;;1632988;87;21066;-87
2022/11/06 09:22:34;;;;;;;14.33;6.55;;;;;;;;;;1633314;87;21054;-86
2022/11/06 09:25:00;;;;;;;15.70;6.95;;;;;;;;;;1633266;87;20844;-86
2022/11/06 09:27:31;;;;;;;16.50;7.37;;;;;;;;;;1633525;87;21720;-86
2022/11/06 09:29:57;;;;;;;15.53;6.97;;;;;;;;;;1631661;86;21853;-87
2022/11/06 09:32:23;;;;;;;14.98;6.72;;;;;;;;;;1671222;84;20975;-86
2022/11/06 09:34:49;;;;;;;15.75;6.45;;;;;;;;;;1662455;84;21700;-88
2022/11/06 09:37:15;;;;;;;16.25;7.20;;;;;;;;;;1672482;84;21067;-84
2022/11/06 09:39:42;;;;;;;17.17;6.78;;;;;;;;;;1666246;84;20828;-87
2022/11/06 09:42:11;;;;;;;17.90;7.50;;;;;;;;;;1702735;81;21070;-87
2022/11/06 09:44:40;;;;;;;16.32;7.03;;;;;;;;;;1723786;81;20951;-87
2022/11/06 09:47:10;;;;;;;14.83;6.28;;;;;;;;;;1720742;81;21639;-84
2022/11/06 09:49:41;;;;;;;14.87;6.72;;;;;;;;;;1726459;81;21078;-86
2022/11/06 09:52:25;;;;;;;15.80;6.37;;;;;;;;;;1720101;81;21130;-89
2022/11/06 09:54:57;;;;;;;14.60;6.60;;;;;;;;;;1717471;81;21117;-86
2022/11/06 09:57:38;;;;;;;12.60;5.92;;;;;;;;;;1720730;81;21054;-86
2022/11/06 10:00:05;;;;;;;13.93;5.97;;;;;;;;;;1728109;81;21128;-84
2022/11/06 10:02:50;;;;;;;13.53;5.50;;;;;;;;;;1756394;80;21063;-86
2022/11/06 10:05:25;;;;;;;13.80;6.00;;;;;;;;;;1737122;80;21106;-87
2022/11/06 10:07:54;;;;;;;13.50;5.83;;;;;;;;;;1757021;80;21118;-87
2022/11/06 10:10:23;;;;;;;12.18;5.78;;;;;;;;;;1654743;84;21128;-85
2022/11/06 10:13:26;;;;;;;14.30;5.85;;;;;;;;;;1653243;84;21109;-83
2022/11/06 10:16:15;;;;;;;12.65;5.00;;;;;;;;;;1656019;86;21029;-86
2022/11/06 10:19:12;;;;;;;11.88;4.97;;;;;;;;;;1658533;86;21465;-88
2022/11/06 10:22:01;;;;;;;13.32;5.70;;;;;;;;;;1645175;86;21113;-87
2022/11/06 10:24:42;;;;;;;13.03;5.40;;;;;;;;;;1658364;85;21051;-87
2022/11/06 10:27:16;;;;;;;12.82;5.03;;;;;;;;;;1642858;85;21645;-86
2022/11/06 10:30:01;;;;;;;10.93;5.17;;;;;;;;;;1642380;86;21137;-87
2022/11/06 10:33:04;;;;;;;12.00;4.87;;;;;;;;;;1643093;86;21061;-85
2022/11/06 10:35:48;;;;;;;16.15;6.62;;;;;;;;;;1642239;86;21053;-87
2022/11/06 10:38:26;;;;;;;12.58;5.87;;;;;;;;;;1573292;89;21744;-87
2022/11/06 10:40:54;;;;;;;17.75;6.65;;;;;;;;;;1573276;89;21192;-85
2022/11/06 10:43:41;;;;;;;16.62;6.60;;;;;;;;;;1579490;88;21049;-83
2022/11/06 10:46:19;;;;;;;20.68;7.08;;;;;;;;;;1575932;89;21051;-83
2022/11/06 10:48:55;;;;;;;19.52;6.03;;;;;;;;;;1573729;89;21126;-86
2022/11/06 10:51:53;;;;;;;14.05;5.97;;;;;;;;;;1547978;91;21114;-84
2022/11/06 10:54:45;;;;;;;15.05;6.12;;;;;;;;;;1551765;91;22100;-85
2022/11/06 10:57:20;;;;;;;17.60;5.72;;;;;;;;;;1546906;91;21527;-87
2022/11/06 10:59:47;;;;;;;15.80;6.12;;;;;;;;;;1525200;92;21111;-87
2022/11/06 11:02:34;;;;;;;17.05;6.08;;;;;;;;;;1500007;93;21004;-85
2022/11/06 11:04:59;;;;;;;10.45;4.50;;;;;;;;;;1523004;93;21668;-87
2022/11/06 11:07:30;;;;;;;15.32;6.75;;;;;;;;;;1536505;89;21182;-87
2022/11/06 11:10:19;;;;;;;14.90;6.62;;;;;;;;;;1542931;90;21108;-91
2022/11/06 11:12:45;;;;;;;18.65;7.40;;;;;;;;;;1529173;93;21541;-86
2022/11/06 11:15:13;;;;;;;17.12;6.95;;;;;;;;;;1529448;93;21003;-86
2022/11/06 11:17:40;;;;;;;12.98;5.78;;;;;;;;;;1510245;93;21013;-87
2022/11/06 11:20:30;;;;;;;14.05;5.12;;;;;;;;;;1529303;93;21129;-89
2022/11/06 11:23:02;;;;;;;12.33;5.53;;;;;;;;;;1528017;93;21131;-92
2022/11/06 11:25:28;;;;;;;12.78;5.90;;;;;;;;;;1504059;94;21146;-83
2022/11/06 11:27:54;;;;;;;12.90;5.47;;;;;;;;;;1483844;95;20906;-86
2022/11/06 11:30:22;;;;;;;14.28;5.90;;;;;;;;;;1482790;96;21004;-86
2022/11/06 11:32:48;;;;;;;12.93;5.37;;;;;;;;;;1482358;94;22023;-85
2022/11/06 11:35:17;;;;;;;12.00;5.17;;;;;;;;;;1512573;93;21185;-92
2022/11/06 11:37:43;;;;;;;10.75;4.80;;;;;;;;;;1521923;94;21142;-85
2022/11/06 11:40:21;;;;;;;13.08;6.35;;;;;;;;;;1519149;94;20952;-84
2022/11/06 11:42:47;;;;;;;10.95;5.22;;;;;;;;;;1517758;94;21090;-89
2022/11/06 11:45:16;;;;;;;13.03;6.12;;;;;;;;;;1526869;93;21134;-90
2022/11/06 11:47:47;;;;;;;12.00;5.80;;;;;;;;;;1554362;90;21055;-84
2022/11/06 11:50:24;;;;;;;15.08;6.08;;;;;;;;;;1584512;89;21232;-90
2022/11/06 11:52:53;;;;;;;10.43;4.53;;;;;;;;;;1584548;90;21099;-84
2022/11/06 11:55:22;;;;;;;13.95;5.58;;;;;;;;;;1585012;90;21682;-84
2022/11/06 11:57:49;;;;;;;16.62;6.92;;;;;;;;;;1584599;90;21783;-83
2022/11/06 12:00:19;;;;;;;19.17;7.85;;;;;;;;;;1556982;91;21116;-84
2022/11/06 12:02:58;;;;;;;41.95;14.13;;;;;;;;;;1583861;89;21573;-84
2022/11/06 12:05:33;;;;;;;30.95;10.53;;;;;;;;;;1521581;93;21051;-84
2022/11/06 12:07:59;;;;;;;15.63;6.12;;;;;;;;;;1522096;93;21780;-85
2022/11/06 12:10:32;;;;;;;16.82;7.05;;;;;;;;;;1521905;94;21085;-85
2022/11/06 12:13:00;;;;;;;19.95;6.67;;;;;;;;;;1521911;94;21678;-84
2022/11/06 12:18:20;;;;;;;17.80;7.83;;;;;;;;;;1465088;97;21160;-83
2022/11/06 12:20:59;;;;;;;18.07;7.35;;;;;;;;;;1465538;96;21205;-86
2022/11/06 12:23:37;;;;;;;18.75;7.47;;;;;;;;;;1463152;97;21145;-85
2022/11/06 12:26:32;;;;;;;18.05;7.40;;;;;;;;;;1465215;97;21322;-84
2022/11/06 12:32:38;;;;;;;20.95;8.03;;;;;;;;;;1491015;96;21094;-84
2022/11/06 12:35:19;;;;;;;20.75;8.85;;;;;;;;;;1479687;95;21128;-85
2022/11/06 12:38:08;;;;;;;26.45;10.43;;;;;;;;;;1461958;97;21678;-85
2022/11/06 12:40:38;;;;;;;17.32;7.40;;;;;;;;;;1462042;98;21109;-83
2022/11/06 12:43:24;;;;;;;21.05;8.58;;;;;;;;;;1462118;98;21153;-85
2022/11/06 12:46:16;;;;;;;;;;;;;;;;;;;;;
2022/11/06 12:48:46;;;;;;;22.17;9.23;;;;;;;;;;1454740;98;21636;-84
2022/11/06 12:51:34;;;;;;;20.77;8.93;;;;;;;;;;1454881;98;22261;-86
2022/11/06 12:54:06;;;;;;;25.88;10.80;;;;;;;;;;1448670;98;21188;-85
2022/11/06 12:56:38;;;;;;;24.57;10.10;;;;;;;;;;1454542;97;21223;-85
2022/11/06 12:59:35;;;;;;;25.10;9.13;;;;;;;;;;1451065;98;21093;-86
2022/11/06 13:02:20;;;;;;;25.60;10.15;;;;;;;;;;1460355;97;21101;-85
2022/11/06 13:05:14;;;;;;;24.47;9.93;;;;;;;;;;1444970;99;21182;-86
2022/11/06 13:07:52;;;;;;;26.35;10.00;;;;;;;;;;1449373;99;21167;-84
2022/11/06 13:12:56;;;;;;;26.65;11.60;;;;;;;;;;1518434;93;21122;-84
2022/11/06 13:15:28;;;;;;;32.90;12.23;;;;;;;;;;1507986;94;21147;-85
2022/11/06 13:18:18;;;;;;;39.90;14.50;;;;;;;;;;1504637;94;21137;-83
2022/11/06 13:20:51;;;;;;;48.85;17.15;;;;;;;;;;1478323;97;21777;-85
2022/11/06 13:23:28;;;;;;;32.42;11.43;;;;;;;;;;1478411;97;21150;-84
2022/11/06 13:25:57;;;;;;;22.67;9.45;;;;;;;;;;1489340;94;21078;-86
2022/11/06 13:28:39;;;;;;;24.07;8.90;;;;;;;;;;1514370;94;21180;-86
2022/11/06 13:31:06;;;;;;;20.70;8.03;;;;;;;;;;1515552;94;21913;-83
2022/11/06 13:33:47;;;;;;;21.25;8.90;;;;;;;;;;1492737;94;21148;-84
2022/11/06 13:36:13;;;;;;;26.23;10.43;;;;;;;;;;1482613;96;21292;-85
2022/11/06 13:38:53;;;;;;;23.98;10.10;;;;;;;;;;1480395;96;21112;-83
2022/11/06 13:41:26;;;;;;;24.60;9.65;;;;;;;;;;1511141;92;21100;-84
2022/11/06 13:44:00;;;;;;;24.95;10.63;;;;;;;;;;1559250;91;21889;-84
2022/11/06 13:46:36;;;;;;;31.40;12.65;;;;;;;;;;1559143;90;21051;-83
2022/11/06 13:49:22;;;;;;;33.58;12.98;;;;;;;;;;1557282;92;21110;-86
2022/11/06 13:51:59;;;;;;;43.70;15.80;;;;;;;;;;1553593;92;21087;-81
2022/11/06 13:54:47;;;;;;;33.00;13.43;;;;;;;;;;1531074;93;21469;-83
2022/11/06 13:57:32;;;;;;;29.70;12.13;;;;;;;;;;1513573;92;21121;-83
2022/11/06 14:00:02;;;;;;;39.20;14.10;;;;;;;;;;1524047;94;21019;-84
2022/11/06 14:02:51;;;;;;;37.42;13.78;;;;;;;;;;1524506;94;21292;-85
2022/11/06 14:05:42;;;;;;;30.25;13.25;;;;;;;;;;1524194;94;21608;-84
2022/11/06 14:08:11;;;;;;;42.20;15.58;;;;;;;;;;1524548;94;21656;-83
2022/11/06 14:10:38;;;;;;;37.93;15.75;;;;;;;;;;1544701;92;21376;-87
2022/11/06 14:13:05;;;;;;;38.75;16.07;;;;;;;;;;1578851;89;21163;-84
2022/11/06 14:15:37;;;;;;;40.08;16.32;;;;;;;;;;1582370;89;21162;-83
2022/11/06 14:18:04;;;;;;;44.53;16.62;;;;;;;;;;1582150;89;21142;-83
2022/11/06 14:20:35;;;;;;;45.78;17.00;;;;;;;;;;1582452;89;21075;-82
2022/11/06 14:23:30;;;;;;;40.92;17.17;;;;;;;;;;1581506;89;21086;-83
2022/11/06 14:26:01;;;;;;;29.82;12.73;;;;;;;;;;1582262;89;21009;-85
2022/11/06 14:28:34;;;;;;;36.50;14.33;;;;;;;;;;1582130;89;21066;-90
2022/11/06 14:31:01;;;;;;;34.20;14.45;;;;;;;;;;1582387;89;21214;-84
2022/11/06 14:33:51;;;;;;;42.08;16.23;;;;;;;;;;1582557;89;21060;-84
2022/11/06 14:36:26;;;;;;;39.75;17.10;;;;;;;;;;1582505;89;21045;-88
2022/11/06 14:38:52;;;;;;;30.40;12.95;;;;;;;;;;1582315;89;21053;-83
2022/11/06 14:41:38;;;;;;;30.75;12.93;;;;;;;;;;1582586;89;21115;-82
2022/11/06 14:44:25;;;;;;;25.32;12.15;;;;;;;;;;1583369;89;21089;-83
2022/11/06 14:47:01;;;;;;;29.72;12.30;;;;;;;;;;1572575;89;21153;-83
2022/11/06 14:49:42;;;;;;;31.68;13.93;;;;;;;;;;1574919;89;21125;-87
2022/11/06 14:52:11;;;;;;;30.37;13.48;;;;;;;;;;1573094;89;21498;-81
2022/11/06 14:54:39;;;;;;;26.42;11.45;;;;;;;;;;1641223;85;21001;-82
2022/11/06 14:57:08;;;;;;;34.30;11.95;;;;;;;;;;1663080;86;21092;-83
2022/11/06 14:59:38;;;;;;;27.62;11.88;;;;;;;;;;1663008;85;21529;-85
2022/11/06 15:02:17;;;;;;;41.08;15.60;;;;;;;;;;1663463;86;21299;-84
2022/11/06 15:04:46;;;;;;;48.85;19.10;;;;;;;;;;1672276;85;21019;-84
2022/11/06 15:07:32;;;;;;;34.13;13.53;;;;;;;;;;1672162;85;21129;-84
2022/11/06 15:09:58;;;;;;;27.32;12.37;;;;;;;;;;1620050;88;21043;-83